sensor_id;sensor_type;location;lat;lon;timestamp;pressure;altitude;pressure_sealevel;temperature;humidity
58385;BME280;44185;47.844;8.966;2023-08-06T00:02:22;95582.84;;;12.56;100.00
58385;BME280;44185;47.844;8.966;2023-08-06T00:04:49;95580.34;;;12.54;100.00
58385;BME280;44185;47.844;8.966;2023-08-06T00:07:15;95573.84;;;12.49;100.00
58385;BME280;44185;47.844;8.966;2023-08-06T00:09:43;95567.72;;;12.48;100.00
58385;BME280;44185;47.844;8.966;2023-08-06T00:12:09;95571.84;;;12.34;100.00
58385;BME280;44185;47.844;8.966;2023-08-06T00:14:34;95572.47;;;12.28;100.00
58385;BME280;44185;47.844;8.966;2023-08-06T00:17:00;95570.44;;;12.21;100.00
58385;BME280;44185;47.844;8.966;2023-08-06T00:19:25;95575.25;;;12.18;100.00
58385;BME280;44185;47.844;8.966;2023-08-06T00:21:52;95574.09;;;12.20;100.00
58385;BME280;44185;47.844;8.966;2023-08-06T00:24:18;95569.56;;;12.12;100.00
58385;BME280;44185;47.844;8.966;2023-08-06T00:26:44;95570.00;;;12.08;100.00
58385;BME280;44185;47.844;8.966;2023-08-06T00:29:09;95567.53;;;12.06;100.00
58385;BME280;44185;47.844;8.966;2023-08-06T00:31:35;95571.63;;;12.00;100.00
58385;BME280;44185;47.844;8.966;2023-08-06T00:34:00;95562.84;;;12.00;100.00
58385;BME280;44185;47.844;8.966;2023-08-06T00:36:26;95560.69;;;11.95;100.00
58385;BME280;44185;47.844;8.966;2023-08-06T00:38:53;95558.69;;;11.89;100.00
58385;BME280;44185;47.844;8.966;2023-08-06T00:41:18;95557.84;;;11.88;100.00
58385;BME280;44185;47.844;8.966;2023-08-06T00:43:44;95564.28;;;11.86;100.00
58385;BME280;44185;47.844;8.966;2023-08-06T00:46:09;95557.66;;;11.90;100.00
58385;BME280;44185;47.844;8.966;2023-08-06T00:48:35;95553.56;;;11.96;100.00
58385;BME280;44185;47.844;8.966;2023-08-06T00:51:01;95554.88;;;12.00;100.00
58385;BME280;44185;47.844;8.966;2023-08-06T00:53:27;95557.09;;;12.05;100.00
58385;BME280;44185;47.844;8.966;2023-08-06T00:55:54;95552.69;;;11.87;100.00
58385;BME280;44185;47.844;8.966;2023-08-06T00:58:19;95546.09;;;11.64;100.00
58385;BME280;44185;47.844;8.966;2023-08-06T01:00:45;95543.63;;;11.44;100.00
58385;BME280;44185;47.844;8.966;2023-08-06T01:03:10;95544.72;;;11.60;100.00
58385;BME280;44185;47.844;8.966;2023-08-06T01:05:36;95546.25;;;11.63;100.00
58385;BME280;44185;47.844;8.966;2023-08-06T01:08:20;95546.50;;;11.78;100.00
58385;BME280;44185;47.844;8.966;2023-08-06T01:11:00;95540.44;;;11.86;100.00
58385;BME280;44185;47.844;8.966;2023-08-06T01:13:33;95535.97;;;11.95;100.00
58385;BME280;44185;47.844;8.966;2023-08-06T01:16:04;95530.78;;;11.85;100.00
58385;BME280;44185;47.844;8.966;2023-08-06T01:18:30;95531.00;;;11.92;100.00
58385;BME280;44185;47.844;8.966;2023-08-06T01:20:56;95527.53;;;11.91;100.00
58385;BME280;44185;47.844;8.966;2023-08-06T01:23:23;95523.56;;;11.95;100.00
58385;BME280;44185;47.844;8.966;2023-08-06T01:25:56;95520.25;;;11.93;100.00
58385;BME280;44185;47.844;8.966;2023-08-06T01:28:33;95516.25;;;11.89;100.00
58385;BME280;44185;47.844;8.966;2023-08-06T01:31:03;95519.03;;;11.87;100.00
58385;BME280;44185;47.844;8.966;2023-08-06T01:33:34;95513.22;;;11.84;100.00
58385;BME280;44185;47.844;8.966;2023-08-06T01:36:04;95508.88;;;11.74;100.00
58385;BME280;44185;47.844;8.966;2023-08-06T01:38:31;95504.72;;;11.72;100.00
58385;BME280;44185;47.844;8.966;2023-08-06T01:40:56;95503.94;;;11.79;100.00
58385;BME280;44185;47.844;8.966;2023-08-06T01:43:22;95498.91;;;11.68;100.00
58385;BME280;44185;47.844;8.966;2023-08-06T01:45:47;95495.59;;;11.66;100.00
58385;BME280;44185;47.844;8.966;2023-08-06T01:48:13;95491.28;;;11.65;100.00
58385;BME280;44185;47.844;8.966;2023-08-06T01:50:39;95484.78;;;11.59;100.00
58385;BME280;44185;47.844;8.966;2023-08-06T01:53:05;95490.88;;;11.51;100.00
58385;BME280;44185;47.844;8.966;2023-08-06T01:55:31;95504.97;;;11.52;100.00
58385;BME280;44185;47.844;8.966;2023-08-06T01:57:59;95508.56;;;11.24;100.00
58385;BME280;44185;47.844;8.966;2023-08-06T02:00:25;95508.38;;;11.17;100.00
58385;BME280;44185;47.844;8.966;2023-08-06T02:02:51;95507.63;;;11.33;100.00
58385;BME280;44185;47.844;8.966;2023-08-06T02:05:16;95502.81;;;11.29;100.00
58385;BME280;44185;47.844;8.966;2023-08-06T02:07:41;95494.31;;;11.43;100.00
58385;BME280;44185;47.844;8.966;2023-08-06T02:10:09;95492.16;;;11.20;100.00
58385;BME280;44185;47.844;8.966;2023-08-06T02:12:36;95492.69;;;11.24;100.00
58385;BME280;44185;47.844;8.966;2023-08-06T02:15:02;95498.78;;;11.43;100.00
58385;BME280;44185;47.844;8.966;2023-08-06T02:17:28;95489.56;;;11.55;100.00
58385;BME280;44185;47.844;8.966;2023-08-06T02:19:53;95488.94;;;11.62;100.00
58385;BME280;44185;47.844;8.966;2023-08-06T02:22:19;95485.94;;;11.56;100.00
58385;BME280;44185;47.844;8.966;2023-08-06T02:24:44;95484.47;;;11.62;100.00
58385;BME280;44185;47.844;8.966;2023-08-06T02:27:11;95487.44;;;11.59;100.00
58385;BME280;44185;47.844;8.966;2023-08-06T02:29:37;95483.53;;;11.72;100.00
58385;BME280;44185;47.844;8.966;2023-08-06T02:32:02;95481.41;;;11.75;100.00
58385;BME280;44185;47.844;8.966;2023-08-06T02:34:28;95478.56;;;11.77;100.00
58385;BME280;44185;47.844;8.966;2023-08-06T02:36:53;95477.13;;;11.83;100.00
58385;BME280;44185;47.844;8.966;2023-08-06T02:39:22;95470.00;;;11.83;100.00
58385;BME280;44185;47.844;8.966;2023-08-06T02:41:48;95472.66;;;11.83;100.00
58385;BME280;44185;47.844;8.966;2023-08-06T02:44:17;95467.34;;;11.83;100.00
58385;BME280;44185;47.844;8.966;2023-08-06T02:46:44;95468.88;;;11.94;100.00
58385;BME280;44185;47.844;8.966;2023-08-06T02:49:12;95463.41;;;11.96;100.00
58385;BME280;44185;47.844;8.966;2023-08-06T02:51:37;95456.44;;;11.95;100.00
58385;BME280;44185;47.844;8.966;2023-08-06T02:54:14;95461.88;;;11.85;100.00
58385;BME280;44185;47.844;8.966;2023-08-06T02:56:43;95462.03;;;11.83;100.00
58385;BME280;44185;47.844;8.966;2023-08-06T02:59:08;95459.41;;;11.83;100.00
58385;BME280;44185;47.844;8.966;2023-08-06T03:01:35;95449.50;;;11.94;100.00
58385;BME280;44185;47.844;8.966;2023-08-06T03:04:00;95448.97;;;11.90;100.00
58385;BME280;44185;47.844;8.966;2023-08-06T03:06:32;95440.19;;;11.89;100.00
58385;BME280;44185;47.844;8.966;2023-08-06T03:08:58;95433.88;;;11.82;100.00
58385;BME280;44185;47.844;8.966;2023-08-06T03:11:24;95437.31;;;11.74;100.00
58385;BME280;44185;47.844;8.966;2023-08-06T03:13:49;95447.78;;;11.84;100.00
58385;BME280;44185;47.844;8.966;2023-08-06T03:16:16;95440.88;;;11.92;100.00
58385;BME280;44185;47.844;8.966;2023-08-06T03:18:48;95441.00;;;11.90;100.00
58385;BME280;44185;47.844;8.966;2023-08-06T03:21:14;95442.16;;;11.87;100.00
58385;BME280;44185;47.844;8.966;2023-08-06T03:23:39;95441.28;;;11.70;100.00
58385;BME280;44185;47.844;8.966;2023-08-06T03:26:07;95448.59;;;11.76;100.00
58385;BME280;44185;47.844;8.966;2023-08-06T03:28:36;95443.47;;;11.75;100.00
58385;BME280;44185;47.844;8.966;2023-08-06T03:31:02;95435.19;;;11.86;100.00
58385;BME280;44185;47.844;8.966;2023-08-06T03:33:28;95444.69;;;11.97;100.00
58385;BME280;44185;47.844;8.966;2023-08-06T03:35:55;95442.53;;;12.01;100.00
58385;BME280;44185;47.844;8.966;2023-08-06T03:38:24;95446.06;;;12.10;100.00
58385;BME280;44185;47.844;8.966;2023-08-06T03:40:49;95456.66;;;12.10;100.00
58385;BME280;44185;47.844;8.966;2023-08-06T03:43:15;95449.09;;;12.15;100.00
58385;BME280;44185;47.844;8.966;2023-08-06T03:45:41;95462.00;;;12.18;100.00
58385;BME280;44185;47.844;8.966;2023-08-06T03:48:06;95453.91;;;12.20;100.00
58385;BME280;44185;47.844;8.966;2023-08-06T03:50:32;95461.38;;;12.33;100.00
58385;BME280;44185;47.844;8.966;2023-08-06T03:53:01;95455.25;;;12.32;100.00
58385;BME280;44185;47.844;8.966;2023-08-06T03:55:27;95456.41;;;12.30;100.00
58385;BME280;44185;47.844;8.966;2023-08-06T03:57:52;95460.41;;;12.34;100.00
58385;BME280;44185;47.844;8.966;2023-08-06T04:00:18;95457.41;;;12.29;100.00
58385;BME280;44185;47.844;8.966;2023-08-06T04:02:44;95465.66;;;12.17;100.00
58385;BME280;44185;47.844;8.966;2023-08-06T04:05:09;95460.69;;;12.22;100.00
58385;BME280;44185;47.844;8.966;2023-08-06T04:07:35;95463.03;;;12.26;100.00
58385;BME280;44185;47.844;8.966;2023-08-06T04:10:04;95465.03;;;12.32;100.00
58385;BME280;44185;47.844;8.966;2023-08-06T04:12:30;95461.72;;;12.38;100.00
58385;BME280;44185;47.844;8.966;2023-08-06T04:14:57;95473.19;;;12.39;100.00
58385;BME280;44185;47.844;8.966;2023-08-06T04:17:23;95473.66;;;12.42;100.00
58385;BME280;44185;47.844;8.966;2023-08-06T04:19:51;95472.38;;;12.47;100.00
58385;BME280;44185;47.844;8.966;2023-08-06T04:22:16;95474.34;;;12.44;100.00
58385;BME280;44185;47.844;8.966;2023-08-06T04:24:42;95470.00;;;12.35;100.00
58385;BME280;44185;47.844;8.966;2023-08-06T04:27:09;95485.78;;;12.45;100.00
58385;BME280;44185;47.844;8.966;2023-08-06T04:29:35;95479.81;;;12.43;100.00
58385;BME280;44185;47.844;8.966;2023-08-06T04:32:00;95475.03;;;12.55;100.00
58385;BME280;44185;47.844;8.966;2023-08-06T04:34:26;95479.66;;;12.44;100.00
58385;BME280;44185;47.844;8.966;2023-08-06T04:36:51;95487.94;;;12.41;100.00
58385;BME280;44185;47.844;8.966;2023-08-06T04:39:19;95482.81;;;12.48;100.00
58385;BME280;44185;47.844;8.966;2023-08-06T04:41:44;95488.44;;;12.45;100.00
58385;BME280;44185;47.844;8.966;2023-08-06T04:44:11;95481.81;;;12.41;100.00
58385;BME280;44185;47.844;8.966;2023-08-06T04:46:37;95472.84;;;12.33;100.00
58385;BME280;44185;47.844;8.966;2023-08-06T04:49:02;95467.66;;;12.15;100.00
58385;BME280;44185;47.844;8.966;2023-08-06T04:51:30;95470.97;;;12.17;100.00
58385;BME280;44185;47.844;8.966;2023-08-06T04:53:56;95471.56;;;12.11;100.00
58385;BME280;44185;47.844;8.966;2023-08-06T04:56:22;95464.84;;;12.25;100.00
58385;BME280;44185;47.844;8.966;2023-08-06T04:58:51;95461.53;;;12.23;100.00
58385;BME280;44185;47.844;8.966;2023-08-06T05:01:19;95463.84;;;12.18;100.00
58385;BME280;44185;47.844;8.966;2023-08-06T05:03:44;95476.94;;;12.19;100.00
58385;BME280;44185;47.844;8.966;2023-08-06T05:06:10;95480.19;;;12.13;100.00
58385;BME280;44185;47.844;8.966;2023-08-06T05:08:35;95478.84;;;12.00;100.00
58385;BME280;44185;47.844;8.966;2023-08-06T05:11:01;95469.88;;;11.93;100.00
58385;BME280;44185;47.844;8.966;2023-08-06T05:13:26;95484.16;;;12.09;100.00
58385;BME280;44185;47.844;8.966;2023-08-06T05:15:53;95487.13;;;12.06;100.00
58385;BME280;44185;47.844;8.966;2023-08-06T05:18:20;95486.78;;;12.00;100.00
58385;BME280;44185;47.844;8.966;2023-08-06T05:20:45;95488.28;;;12.03;100.00
58385;BME280;44185;47.844;8.966;2023-08-06T05:23:11;95489.28;;;12.02;100.00
58385;BME280;44185;47.844;8.966;2023-08-06T05:25:37;95483.44;;;11.90;100.00
58385;BME280;44185;47.844;8.966;2023-08-06T05:28:02;95486.81;;;12.09;100.00
58385;BME280;44185;47.844;8.966;2023-08-06T05:30:28;95497.75;;;12.06;100.00
58385;BME280;44185;47.844;8.966;2023-08-06T05:32:54;95507.09;;;12.18;100.00
58385;BME280;44185;47.844;8.966;2023-08-06T05:35:21;95511.06;;;12.14;100.00
58385;BME280;44185;47.844;8.966;2023-08-06T05:37:46;95515.00;;;12.10;100.00
58385;BME280;44185;47.844;8.966;2023-08-06T05:40:12;95519.31;;;12.11;100.00
58385;BME280;44185;47.844;8.966;2023-08-06T05:42:37;95515.63;;;12.04;100.00
58385;BME280;44185;47.844;8.966;2023-08-06T05:45:03;95518.66;;;12.09;100.00
58385;BME280;44185;47.844;8.966;2023-08-06T05:47:29;95515.13;;;12.00;100.00
58385;BME280;44185;47.844;8.966;2023-08-06T05:49:54;95526.56;;;12.00;100.00
58385;BME280;44185;47.844;8.966;2023-08-06T05:52:21;95509.72;;;11.75;100.00
58385;BME280;44185;47.844;8.966;2023-08-06T05:54:47;95534.44;;;11.84;100.00
58385;BME280;44185;47.844;8.966;2023-08-06T05:57:13;95537.41;;;11.81;100.00
58385;BME280;44185;47.844;8.966;2023-08-06T05:59:40;95537.03;;;12.10;100.00
58385;BME280;44185;47.844;8.966;2023-08-06T06:02:05;95543.25;;;11.93;100.00
58385;BME280;44185;47.844;8.966;2023-08-06T06:04:31;95538.13;;;11.91;100.00
58385;BME280;44185;47.844;8.966;2023-08-06T06:09:29;95538.47;;;13.08;100.00
58385;BME280;44185;47.844;8.966;2023-08-06T06:11:54;95532.66;;;13.13;100.00
58385;BME280;44185;47.844;8.966;2023-08-06T06:14:19;95544.72;;;12.82;100.00
58385;BME280;44185;47.844;8.966;2023-08-06T06:16:45;95542.38;;;12.62;100.00
58385;BME280;44185;47.844;8.966;2023-08-06T06:19:11;95543.34;;;12.44;100.00
58385;BME280;44185;47.844;8.966;2023-08-06T06:21:36;95537.59;;;12.74;100.00
58385;BME280;44185;47.844;8.966;2023-08-06T06:24:02;95540.06;;;12.59;100.00
58385;BME280;44185;47.844;8.966;2023-08-06T06:26:29;95542.03;;;12.57;100.00
58385;BME280;44185;47.844;8.966;2023-08-06T06:28:55;95538.22;;;12.51;100.00
58385;BME280;44185;47.844;8.966;2023-08-06T06:31:20;95540.88;;;12.51;100.00
58385;BME280;44185;47.844;8.966;2023-08-06T06:33:46;95542.81;;;12.41;100.00
58385;BME280;44185;47.844;8.966;2023-08-06T06:36:11;95543.69;;;12.58;100.00
58385;BME280;44185;47.844;8.966;2023-08-06T06:38:36;95541.84;;;12.50;100.00
58385;BME280;44185;47.844;8.966;2023-08-06T06:41:02;95551.97;;;12.47;100.00
58385;BME280;44185;47.844;8.966;2023-08-06T06:43:29;95542.69;;;12.51;100.00
58385;BME280;44185;47.844;8.966;2023-08-06T06:45:56;95554.84;;;12.18;100.00
58385;BME280;44185;47.844;8.966;2023-08-06T06:48:21;95563.81;;;12.17;100.00
58385;BME280;44185;47.844;8.966;2023-08-06T06:50:47;95559.16;;;12.19;100.00
58385;BME280;44185;47.844;8.966;2023-08-06T06:53:13;95567.78;;;12.21;100.00
58385;BME280;44185;47.844;8.966;2023-08-06T06:55:38;95570.59;;;12.20;100.00
58385;BME280;44185;47.844;8.966;2023-08-06T06:58:04;95562.59;;;12.11;100.00
58385;BME280;44185;47.844;8.966;2023-08-06T07:00:31;95565.03;;;12.05;100.00
58385;BME280;44185;47.844;8.966;2023-08-06T07:02:56;95558.56;;;11.99;100.00
58385;BME280;44185;47.844;8.966;2023-08-06T07:05:21;95573.25;;;11.93;100.00
58385;BME280;44185;47.844;8.966;2023-08-06T07:07:47;95577.94;;;11.99;100.00
58385;BME280;44185;47.844;8.966;2023-08-06T07:10:13;95574.78;;;11.96;100.00
58385;BME280;44185;47.844;8.966;2023-08-06T07:12:38;95575.91;;;11.93;100.00
58385;BME280;44185;47.844;8.966;2023-08-06T07:15:05;95583.56;;;11.96;100.00
58385;BME280;44185;47.844;8.966;2023-08-06T07:17:32;95588.59;;;11.81;100.00
58385;BME280;44185;47.844;8.966;2023-08-06T07:19:58;95591.09;;;11.83;100.00
58385;BME280;44185;47.844;8.966;2023-08-06T07:22:23;95592.38;;;11.78;100.00
58385;BME280;44185;47.844;8.966;2023-08-06T07:24:49;95602.69;;;11.82;100.00
58385;BME280;44185;47.844;8.966;2023-08-06T07:27:14;95592.59;;;11.85;100.00
58385;BME280;44185;47.844;8.966;2023-08-06T07:29:40;95605.03;;;11.85;100.00
58385;BME280;44185;47.844;8.966;2023-08-06T07:32:06;95614.13;;;11.82;100.00
58385;BME280;44185;47.844;8.966;2023-08-06T07:34:33;95622.38;;;11.79;100.00
58385;BME280;44185;47.844;8.966;2023-08-06T07:36:58;95610.50;;;11.83;100.00
58385;BME280;44185;47.844;8.966;2023-08-06T07:39:24;95621.81;;;11.94;100.00
58385;BME280;44185;47.844;8.966;2023-08-06T07:41:49;95623.97;;;12.17;100.00
58385;BME280;44185;47.844;8.966;2023-08-06T07:44:15;95621.00;;;12.20;100.00
58385;BME280;44185;47.844;8.966;2023-08-06T07:46:43;95618.34;;;12.20;100.00
58385;BME280;44185;47.844;8.966;2023-08-06T07:49:09;95617.72;;;12.26;100.00
58385;BME280;44185;47.844;8.966;2023-08-06T07:51:36;95621.22;;;12.35;100.00
58385;BME280;44185;47.844;8.966;2023-08-06T07:54:01;95624.91;;;12.42;100.00
58385;BME280;44185;47.844;8.966;2023-08-06T07:56:27;95614.16;;;12.44;100.00
58385;BME280;44185;47.844;8.966;2023-08-06T07:58:52;95612.56;;;12.25;100.00
58385;BME280;44185;47.844;8.966;2023-08-06T08:01:17;95616.59;;;12.37;100.00
58385;BME280;44185;47.844;8.966;2023-08-06T08:03:43;95607.47;;;12.40;100.00
58385;BME280;44185;47.844;8.966;2023-08-06T08:06:08;95610.31;;;12.38;100.00
58385;BME280;44185;47.844;8.966;2023-08-06T08:08:35;95614.63;;;12.39;100.00
58385;BME280;44185;47.844;8.966;2023-08-06T08:11:01;95617.66;;;12.44;100.00
58385;BME280;44185;47.844;8.966;2023-08-06T08:13:26;95608.31;;;12.40;100.00
58385;BME280;44185;47.844;8.966;2023-08-06T08:15:57;95614.78;;;12.38;100.00
58385;BME280;44185;47.844;8.966;2023-08-06T08:18:22;95616.94;;;12.42;100.00
58385;BME280;44185;47.844;8.966;2023-08-06T08:20:48;95615.78;;;12.37;100.00
58385;BME280;44185;47.844;8.966;2023-08-06T08:23:13;95616.41;;;12.30;100.00
58385;BME280;44185;47.844;8.966;2023-08-06T08:25:40;95613.09;;;12.28;100.00
58385;BME280;44185;47.844;8.966;2023-08-06T08:28:06;95616.50;;;12.47;100.00
58385;BME280;44185;47.844;8.966;2023-08-06T08:30:32;95620.91;;;12.38;100.00
58385;BME280;44185;47.844;8.966;2023-08-06T08:32:57;95623.25;;;12.41;100.00
58385;BME280;44185;47.844;8.966;2023-08-06T08:35:23;95617.13;;;12.41;100.00
58385;BME280;44185;47.844;8.966;2023-08-06T08:37:48;95625.91;;;12.41;100.00
58385;BME280;44185;47.844;8.966;2023-08-06T08:40:14;95619.47;;;12.44;100.00
58385;BME280;44185;47.844;8.966;2023-08-06T08:42:41;95624.28;;;12.49;100.00
58385;BME280;44185;47.844;8.966;2023-08-06T08:45:11;95625.88;;;12.33;100.00
58385;BME280;44185;47.844;8.966;2023-08-06T08:47:37;95629.72;;;12.39;100.00
58385;BME280;44185;47.844;8.966;2023-08-06T08:50:05;95633.88;;;12.41;100.00
58385;BME280;44185;47.844;8.966;2023-08-06T08:52:32;95631.19;;;12.33;100.00
58385;BME280;44185;47.844;8.966;2023-08-06T08:54:59;95641.63;;;12.34;100.00
58385;BME280;44185;47.844;8.966;2023-08-06T08:57:26;95636.00;;;12.38;100.00
58385;BME280;44185;47.844;8.966;2023-08-06T08:59:53;95644.41;;;12.25;100.00
58385;BME280;44185;47.844;8.966;2023-08-06T09:02:21;95637.59;;;12.22;100.00
58385;BME280;44185;47.844;8.966;2023-08-06T09:04:48;95640.81;;;12.42;100.00
58385;BME280;44185;47.844;8.966;2023-08-06T09:07:18;95646.84;;;12.44;100.00
58385;BME280;44185;47.844;8.966;2023-08-06T09:09:47;95651.22;;;12.62;100.00
58385;BME280;44185;47.844;8.966;2023-08-06T09:12:15;95645.94;;;12.71;100.00
58385;BME280;44185;47.844;8.966;2023-08-06T09:14:41;95652.22;;;12.70;100.00
58385;BME280;44185;47.844;8.966;2023-08-06T09:17:08;95664.56;;;12.87;100.00
58385;BME280;44185;47.844;8.966;2023-08-06T09:19:34;95660.81;;;13.07;100.00
58385;BME280;44185;47.844;8.966;2023-08-06T09:21:59;95643.22;;;13.06;100.00
58385;BME280;44185;47.844;8.966;2023-08-06T09:24:25;95648.03;;;13.10;100.00
58385;BME280;44185;47.844;8.966;2023-08-06T09:26:51;95652.50;;;13.01;100.00
58385;BME280;44185;47.844;8.966;2023-08-06T09:29:16;95650.72;;;13.19;100.00
58385;BME280;44185;47.844;8.966;2023-08-06T09:31:42;95653.06;;;13.55;100.00
58385;BME280;44185;47.844;8.966;2023-08-06T09:34:12;95659.25;;;13.89;100.00
58385;BME280;44185;47.844;8.966;2023-08-06T09:36:41;95666.69;;;13.52;100.00
58385;BME280;44185;47.844;8.966;2023-08-06T09:39:12;95660.91;;;13.65;100.00
58385;BME280;44185;47.844;8.966;2023-08-06T09:41:38;95659.56;;;13.53;100.00
58385;BME280;44185;47.844;8.966;2023-08-06T09:44:03;95657.19;;;14.25;100.00
58385;BME280;44185;47.844;8.966;2023-08-06T09:46:32;95668.34;;;14.12;100.00
58385;BME280;44185;47.844;8.966;2023-08-06T09:48:57;95664.53;;;14.06;100.00
58385;BME280;44185;47.844;8.966;2023-08-06T09:51:24;95668.53;;;14.02;100.00
58385;BME280;44185;47.844;8.966;2023-08-06T09:53:51;95667.97;;;14.32;100.00
58385;BME280;44185;47.844;8.966;2023-08-06T09:56:17;95667.88;;;14.00;100.00
58385;BME280;44185;47.844;8.966;2023-08-06T09:58:44;95654.88;;;13.55;100.00
58385;BME280;44185;47.844;8.966;2023-08-06T10:01:12;95668.28;;;13.11;100.00
58385;BME280;44185;47.844;8.966;2023-08-06T10:03:39;95680.44;;;12.71;100.00
58385;BME280;44185;47.844;8.966;2023-08-06T10:06:06;95679.78;;;12.68;100.00
58385;BME280;44185;47.844;8.966;2023-08-06T10:08:32;95677.13;;;12.68;100.00
58385;BME280;44185;47.844;8.966;2023-08-06T10:10:58;95679.41;;;12.63;100.00
58385;BME280;44185;47.844;8.966;2023-08-06T10:13:24;95683.59;;;12.66;100.00
58385;BME280;44185;47.844;8.966;2023-08-06T10:15:50;95679.47;;;12.80;100.00
58385;BME280;44185;47.844;8.966;2023-08-06T10:18:17;95682.19;;;12.97;100.00
58385;BME280;44185;47.844;8.966;2023-08-06T10:20:43;95685.53;;;13.07;100.00
58385;BME280;44185;47.844;8.966;2023-08-06T10:23:08;95684.38;;;13.01;100.00
58385;BME280;44185;47.844;8.966;2023-08-06T10:25:40;95686.88;;;13.11;100.00
58385;BME280;44185;47.844;8.966;2023-08-06T10:28:10;95680.59;;;13.21;100.00
58385;BME280;44185;47.844;8.966;2023-08-06T10:30:41;95686.59;;;13.31;100.00
58385;BME280;44185;47.844;8.966;2023-08-06T10:33:07;95680.63;;;13.54;100.00
58385;BME280;44185;47.844;8.966;2023-08-06T10:35:37;95684.44;;;13.52;100.00
58385;BME280;44185;47.844;8.966;2023-08-06T10:38:08;95684.84;;;13.82;100.00
58385;BME280;44185;47.844;8.966;2023-08-06T10:40:35;95674.19;;;13.57;100.00
58385;BME280;44185;47.844;8.966;2023-08-06T10:43:01;95692.31;;;13.78;100.00
58385;BME280;44185;47.844;8.966;2023-08-06T10:45:27;95678.69;;;13.73;100.00
58385;BME280;44185;47.844;8.966;2023-08-06T10:47:52;95689.97;;;13.75;100.00
58385;BME280;44185;47.844;8.966;2023-08-06T10:50:18;95690.81;;;14.01;100.00
58385;BME280;44185;47.844;8.966;2023-08-06T10:52:43;95695.31;;;14.00;100.00
58385;BME280;44185;47.844;8.966;2023-08-06T10:55:09;95691.66;;;13.76;100.00
58385;BME280;44185;47.844;8.966;2023-08-06T10:57:36;95695.28;;;13.67;100.00
58385;BME280;44185;47.844;8.966;2023-08-06T11:00:01;95697.81;;;13.68;100.00
58385;BME280;44185;47.844;8.966;2023-08-06T11:02:28;95696.63;;;13.71;100.00
58385;BME280;44185;47.844;8.966;2023-08-06T11:04:53;95693.31;;;13.94;100.00
58385;BME280;44185;47.844;8.966;2023-08-06T11:07:18;95690.63;;;13.77;100.00
58385;BME280;44185;47.844;8.966;2023-08-06T11:09:44;95680.16;;;13.59;100.00
58385;BME280;44185;47.844;8.966;2023-08-06T11:12:10;95697.81;;;13.85;100.00
58385;BME280;44185;47.844;8.966;2023-08-06T11:14:37;95698.94;;;14.16;100.00
58385;BME280;44185;47.844;8.966;2023-08-06T11:17:02;95692.78;;;14.32;100.00
58385;BME280;44185;47.844;8.966;2023-08-06T11:19:28;95695.38;;;14.49;100.00
58385;BME280;44185;47.844;8.966;2023-08-06T11:21:54;95687.06;;;14.44;100.00
58385;BME280;44185;47.844;8.966;2023-08-06T11:24:20;95687.13;;;14.76;100.00
58385;BME280;44185;47.844;8.966;2023-08-06T11:26:45;95692.91;;;14.39;100.00
58385;BME280;44185;47.844;8.966;2023-08-06T11:29:10;95690.47;;;14.12;100.00
58385;BME280;44185;47.844;8.966;2023-08-06T11:31:37;95678.66;;;14.15;100.00
58385;BME280;44185;47.844;8.966;2023-08-06T11:34:03;95705.59;;;14.12;100.00
58385;BME280;44185;47.844;8.966;2023-08-06T11:36:29;95696.22;;;14.41;100.00
58385;BME280;44185;47.844;8.966;2023-08-06T11:38:54;95694.53;;;14.57;100.00
58385;BME280;44185;47.844;8.966;2023-08-06T11:41:20;95701.94;;;14.87;100.00
58385;BME280;44185;47.844;8.966;2023-08-06T11:43:45;95706.06;;;14.98;100.00
58385;BME280;44185;47.844;8.966;2023-08-06T11:46:11;95707.41;;;14.85;100.00
58385;BME280;44185;47.844;8.966;2023-08-06T11:48:51;95717.38;;;15.00;100.00
58385;BME280;44185;47.844;8.966;2023-08-06T11:51:17;95717.69;;;15.05;100.00
58385;BME280;44185;47.844;8.966;2023-08-06T11:53:48;95701.09;;;14.86;100.00
58385;BME280;44185;47.844;8.966;2023-08-06T11:56:14;95717.66;;;14.65;100.00
58385;BME280;44185;47.844;8.966;2023-08-06T11:58:40;95721.81;;;14.59;100.00
58385;BME280;44185;47.844;8.966;2023-08-06T12:01:06;95733.47;;;14.50;100.00
58385;BME280;44185;47.844;8.966;2023-08-06T12:03:31;95711.22;;;14.34;100.00
58385;BME280;44185;47.844;8.966;2023-08-06T12:05:58;95723.22;;;14.21;100.00
58385;BME280;44185;47.844;8.966;2023-08-06T12:08:26;95726.06;;;14.11;100.00
58385;BME280;44185;47.844;8.966;2023-08-06T12:10:52;95730.19;;;14.31;100.00
58385;BME280;44185;47.844;8.966;2023-08-06T12:13:17;95728.34;;;14.23;100.00
58385;BME280;44185;47.844;8.966;2023-08-06T12:15:44;95731.03;;;14.23;100.00
58385;BME280;44185;47.844;8.966;2023-08-06T12:18:10;95729.88;;;14.17;100.00
58385;BME280;44185;47.844;8.966;2023-08-06T12:20:35;95733.38;;;13.76;100.00
58385;BME280;44185;47.844;8.966;2023-08-06T12:23:02;95734.34;;;13.83;100.00
58385;BME280;44185;47.844;8.966;2023-08-06T12:25:28;95728.91;;;13.93;100.00
58385;BME280;44185;47.844;8.966;2023-08-06T12:27:53;95736.88;;;13.85;100.00
58385;BME280;44185;47.844;8.966;2023-08-06T12:30:19;95740.00;;;13.63;100.00
58385;BME280;44185;47.844;8.966;2023-08-06T12:32:44;95748.47;;;13.67;100.00
58385;BME280;44185;47.844;8.966;2023-08-06T12:35:10;95756.78;;;13.64;100.00
58385;BME280;44185;47.844;8.966;2023-08-06T12:37:35;95760.81;;;13.33;100.00
58385;BME280;44185;47.844;8.966;2023-08-06T12:40:03;95756.03;;;13.37;100.00
58385;BME280;44185;47.844;8.966;2023-08-06T12:42:28;95766.81;;;13.35;100.00
58385;BME280;44185;47.844;8.966;2023-08-06T12:44:54;95765.41;;;13.14;100.00
58385;BME280;44185;47.844;8.966;2023-08-06T12:47:19;95772.72;;;13.12;100.00
58385;BME280;44185;47.844;8.966;2023-08-06T12:49:45;95790.69;;;13.18;100.00